Time;durP1;ratioP1;P1;durP2;ratioP2;P2;SDS_P1;SDS_P2;PMS_P1;PMS_P2;Temp;Humidity;BMP_temperature;BMP_pressure;BME280_temperature;BME280_humidity;BME280_pressure;Samples;Min_cycle;Max_cycle;Signal;HPM_P1;HPM_P2
2023/12/20 00:01:41;;;;;;;2.50;1.20;;;;;;;8.32;38.46;96108.40;108253;1281;26470;-79
2023/12/20 00:04:12;;;;;;;3.50;1.40;;;;;;;8.44;38.18;96106.02;108207;1259;22527;-79
2023/12/20 00:06:41;;;;;;;2.30;1.40;;;;;;;8.42;38.48;96109.62;108119;1281;24260;-79
2023/12/20 00:09:09;;;;;;;2.40;1.20;;;;;;;8.31;38.04;96110.58;108193;1282;25310;-79
2023/12/20 00:11:38;;;;;;;1.40;0.60;;;;;;;8.51;36.87;96102.00;108193;1279;22693;-79
2023/12/20 00:14:06;;;;;;;1.40;1.00;;;;;;;8.67;36.44;96093.88;108126;1281;22573;-79
2023/12/20 00:16:35;;;;;;;1.50;0.80;;;;;;;8.62;36.92;96093.56;108162;1278;24603;-79
2023/12/20 00:19:04;;;;;;;1.00;0.60;;;;;;;8.61;35.98;96093.63;108186;1282;25249;-79
2023/12/20 00:21:33;;;;;;;1.80;1.20;;;;;;;8.67;36.47;96090.34;108232;1275;22570;-79
2023/12/20 00:24:03;;;;;;;1.80;0.80;;;;;;;8.64;36.05;96079.38;108172;1282;23006;-79
2023/12/20 00:26:32;;;;;;;1.70;0.90;;;;;;;8.68;35.88;96078.75;108153;1281;22564;-79
2023/12/20 00:29:01;;;;;;;1.50;1.20;;;;;;;8.71;35.54;96069.16;108266;1281;23147;-79
2023/12/20 00:31:29;;;;;;;2.00;1.10;;;;;;;8.76;35.68;96058.92;108308;1282;22657;-79
2023/12/20 00:34:04;;;;;;;1.30;1.00;;;;;;;8.80;35.22;96048.14;108164;1281;22540;-79
2023/12/20 00:36:33;;;;;;;2.30;1.20;;;;;;;8.83;34.76;96051.48;108197;1282;26465;-79
2023/12/20 00:39:03;;;;;;;1.80;1.10;;;;;;;8.87;34.87;96044.59;108213;1281;22539;-79
2023/12/20 00:41:31;;;;;;;1.50;0.70;;;;;;;8.85;34.89;96043.64;108276;1282;26473;-80
2023/12/20 00:44:00;;;;;;;1.30;0.80;;;;;;;8.85;35.14;96040.36;108335;1281;22500;-79
2023/12/20 00:46:28;;;;;;;2.30;0.90;;;;;;;8.80;35.08;96036.61;108162;1283;24378;-79
2023/12/20 00:48:56;;;;;;;1.60;0.70;;;;;;;8.80;34.94;96029.80;108234;1282;22575;-79
2023/12/20 00:51:25;;;;;;;1.00;0.80;;;;;;;8.75;35.25;96029.11;108372;1276;22549;-79
2023/12/20 00:53:54;;;;;;;1.80;0.90;;;;;;;8.66;35.51;96030.48;108215;1281;24298;-79
2023/12/20 00:56:23;;;;;;;0.80;0.70;;;;;;;8.67;35.26;96035.22;108160;1281;23106;-79
2023/12/20 00:58:51;;;;;;;1.40;1.10;;;;;;;8.68;35.53;96035.63;108272;1281;22520;-79
2023/12/20 01:01:20;;;;;;;1.10;0.90;;;;;;;8.69;35.09;96031.71;108239;1281;22546;-79
2023/12/20 01:03:51;;;;;;;2.80;1.00;;;;;;;8.74;35.29;96032.67;108263;1281;22800;-79
2023/12/20 01:06:22;;;;;;;1.20;0.90;;;;;;;8.71;35.28;96027.88;108217;1282;22541;-79
2023/12/20 01:08:50;;;;;;;1.30;1.20;;;;;;;8.70;35.48;96026.94;108249;1281;24208;-79
2023/12/20 01:11:18;;;;;;;2.00;1.50;;;;;;;8.64;35.46;96031.59;108164;1281;22725;-79
2023/12/20 01:13:46;;;;;;;1.70;1.00;;;;;;;8.63;35.40;96020.10;108275;1281;25312;-79
2023/12/20 01:16:15;;;;;;;2.90;1.10;;;;;;;8.61;35.47;96013.30;108138;1274;22541;-79
2023/12/20 01:18:43;;;;;;;2.00;1.20;;;;;;;8.57;35.57;96022.04;108231;1279;25900;-79
2023/12/20 01:21:12;;;;;;;1.50;1.10;;;;;;;8.53;35.48;96021.25;108249;1281;25467;-79
2023/12/20 01:23:40;;;;;;;1.70;1.10;;;;;;;8.50;35.82;96029.16;108379;1279;23083;-79
2023/12/20 01:26:09;;;;;;;1.30;1.00;;;;;;;8.41;36.36;96027.27;108193;1281;22559;-79
2023/12/20 01:28:37;;;;;;;2.30;1.30;;;;;;;8.29;36.26;96023.81;108143;1281;21929;-79
2023/12/20 01:31:06;;;;;;;2.40;1.30;;;;;;;8.26;36.14;96023.41;108172;1281;22636;-79
2023/12/20 01:33:34;;;;;;;1.60;0.80;;;;;;;8.25;36.22;96026.38;108238;1281;22061;-79
2023/12/20 01:36:05;;;;;;;1.60;1.10;;;;;;;8.21;36.48;96019.92;108266;1281;22612;-79
2023/12/20 01:38:33;;;;;;;2.40;1.20;;;;;;;8.21;36.00;96011.20;108208;1281;23886;-79
2023/12/20 01:41:04;;;;;;;2.10;1.70;;;;;;;8.24;36.17;96005.10;108239;1278;22538;-79
2023/12/20 01:43:33;;;;;;;1.80;1.00;;;;;;;8.24;35.56;95997.50;108178;1281;22540;-79
2023/12/20 01:46:03;;;;;;;1.60;1.20;;;;;;;8.28;35.53;95993.13;108209;1277;22596;-79
2023/12/20 01:48:34;;;;;;;1.60;0.90;;;;;;;8.25;35.63;95977.48;108260;1281;25280;-79
2023/12/20 01:51:04;;;;;;;2.00;1.50;;;;;;;8.22;35.50;95973.39;108172;1281;23751;-79
2023/12/20 01:53:33;;;;;;;3.10;1.60;;;;;;;8.25;34.99;95955.52;108162;1282;22561;-79
2023/12/20 01:56:02;;;;;;;1.90;1.00;;;;;;;8.24;35.20;95961.52;108156;1281;22537;-78
2023/12/20 01:58:31;;;;;;;1.30;0.50;;;;;;;8.18;35.45;95953.58;108153;1282;23035;-78
2023/12/20 02:01:02;;;;;;;1.80;1.20;;;;;;;8.10;35.58;95956.38;108137;1281;22529;-78
2023/12/20 02:03:31;;;;;;;2.00;0.90;;;;;;;8.02;35.69;95950.27;108070;1280;22567;-79
2023/12/20 02:06:00;;;;;;;1.60;1.10;;;;;;;7.98;35.62;95933.47;108128;1281;22610;-79
2023/12/20 02:08:29;;;;;;;1.60;0.90;;;;;;;7.99;35.36;95935.84;108096;1281;26585;-79
2023/12/20 02:10:57;;;;;;;0.90;0.90;;;;;;;7.96;35.36;95934.80;108118;1281;22666;-79
2023/12/20 02:13:26;;;;;;;2.00;1.20;;;;;;;7.93;35.41;95940.66;108073;1281;22600;-79
2023/12/20 02:15:55;;;;;;;2.70;1.40;;;;;;;7.94;34.82;95936.20;108178;1279;22627;-78
2023/12/20 02:18:24;;;;;;;1.60;0.90;;;;;;;7.95;34.73;95924.16;108106;1282;22563;-79
2023/12/20 02:20:53;;;;;;;1.70;1.10;;;;;;;7.99;34.12;95925.64;108109;1281;22552;-79
2023/12/20 02:23:21;;;;;;;3.30;1.50;;;;;;;8.02;34.44;95924.58;108115;1282;22614;-79
2023/12/20 02:25:49;;;;;;;1.60;0.90;;;;;;;8.00;34.56;95926.48;108074;1282;25142;-78
2023/12/20 02:28:19;;;;;;;1.60;1.00;;;;;;;7.91;34.91;95928.36;108099;1281;23792;-79
2023/12/20 02:30:47;;;;;;;2.20;1.50;;;;;;;7.85;35.02;95922.18;108146;1258;22548;-79
2023/12/20 02:33:15;;;;;;;3.10;1.20;;;;;;;7.76;35.34;95914.55;108094;1281;22544;-78
2023/12/20 02:35:44;;;;;;;2.60;1.40;;;;;;;7.63;35.61;95912.98;108102;1282;22495;-79
2023/12/20 02:38:12;;;;;;;1.60;1.20;;;;;;;7.60;35.51;95914.67;108119;1278;22554;-79
2023/12/20 02:40:41;;;;;;;2.30;1.30;;;;;;;7.70;34.79;95917.77;108140;1281;23262;-79
2023/12/20 02:43:09;;;;;;;5.00;0.80;;;;;;;7.80;35.15;95925.93;108103;1281;24488;-79
2023/12/20 02:45:37;;;;;;;1.90;1.50;;;;;;;7.71;35.56;95922.04;108065;1264;22533;-78
2023/12/20 02:48:10;;;;;;;2.00;1.00;;;;;;;7.62;35.93;95926.98;108090;1281;22577;-79
2023/12/20 02:50:39;;;;;;;3.40;2.10;;;;;;;7.58;36.00;95922.30;108100;1277;22559;-79
2023/12/20 02:53:07;;;;;;;1.40;1.20;;;;;;;7.49;36.30;95923.95;108083;1277;22521;-79
2023/12/20 02:55:35;;;;;;;2.20;1.30;;;;;;;7.39;36.44;95908.56;108095;1277;22556;-78
2023/12/20 02:58:04;;;;;;;1.40;1.10;;;;;;;7.31;36.64;95911.90;108091;1281;25342;-79
2023/12/20 03:00:32;;;;;;;2.00;1.40;;;;;;;7.24;36.89;95908.67;108089;1281;24083;-79
2023/12/20 03:03:00;;;;;;;2.50;1.00;;;;;;;7.24;36.56;95906.98;108127;1281;22621;-79
2023/12/20 03:05:31;;;;;;;2.40;1.60;;;;;;;7.26;36.39;95906.13;108103;1277;23078;-78
2023/12/20 03:08:02;;;;;;;1.60;0.90;;;;;;;7.26;36.55;95902.59;108091;1276;22674;-79
2023/12/20 03:10:31;;;;;;;1.30;1.20;;;;;;;7.28;36.19;95901.25;108070;1281;109925;-78
2023/12/20 03:13:01;;;;;;;2.60;1.30;;;;;;;7.37;35.86;95896.04;108078;1281;22575;-79
2023/12/20 03:15:32;;;;;;;1.20;0.90;;;;;;;7.42;35.69;95886.54;108055;1260;25327;-78
2023/12/20 03:18:03;;;;;;;2.20;1.50;;;;;;;7.43;36.02;95894.71;108099;1281;22534;-79
2023/12/20 03:20:34;;;;;;;1.70;1.10;;;;;;;7.41;35.82;95891.94;108120;1281;25307;-78
2023/12/20 03:23:03;;;;;;;2.20;1.10;;;;;;;7.30;36.14;95895.86;108099;1276;22570;-79
2023/12/20 03:25:31;;;;;;;2.50;1.30;;;;;;;7.21;36.30;95902.52;108050;1277;22554;-78
2023/12/20 03:28:01;;;;;;;2.20;1.50;;;;;;;7.19;36.40;95908.92;108116;1281;22531;-79
2023/12/20 03:30:34;;;;;;;2.00;1.20;;;;;;;7.11;36.74;95903.80;108125;1276;25549;-79
2023/12/20 03:33:03;;;;;;;1.30;1.00;;;;;;;7.06;36.50;95903.92;108080;1281;22538;-79
2023/12/20 03:35:34;;;;;;;1.60;1.30;;;;;;;7.09;36.73;95904.91;108103;1277;22470;-78
2023/12/20 03:38:03;;;;;;;2.50;1.60;;;;;;;6.99;37.35;95910.13;108145;1277;24337;-79
2023/12/20 03:40:33;;;;;;;2.70;1.60;;;;;;;6.87;37.65;95923.00;108115;1281;22657;-78
2023/12/20 03:43:01;;;;;;;1.80;1.00;;;;;;;6.74;37.91;95923.00;108160;1281;25334;-78
2023/12/20 03:45:32;;;;;;;2.70;1.40;;;;;;;6.74;37.76;95920.30;108126;1277;23785;-78
2023/12/20 03:48:00;;;;;;;1.40;1.10;;;;;;;6.78;37.90;95916.41;108050;1277;24079;-78
2023/12/20 03:50:31;;;;;;;1.50;1.00;;;;;;;6.86;37.62;95910.52;108090;1281;25362;-78
2023/12/20 03:53:03;;;;;;;1.90;1.30;;;;;;;6.98;37.29;95915.88;108120;1279;23833;-79
2023/12/20 03:55:34;;;;;;;1.50;0.90;;;;;;;7.05;37.51;95913.59;108109;1281;24042;-78
2023/12/20 03:58:05;;;;;;;1.20;0.90;;;;;;;7.10;37.42;95913.98;108111;1277;22559;-79
2023/12/20 04:00:35;;;;;;;1.60;1.10;;;;;;;7.12;37.25;95906.73;108081;1281;22545;-79
2023/12/20 04:03:04;;;;;;;1.80;0.80;;;;;;;7.22;37.26;95906.27;108138;1272;22553;-79
2023/12/20 04:05:33;;;;;;;1.70;0.90;;;;;;;7.30;37.22;95908.30;108104;1281;25986;-79
2023/12/20 04:08:06;;;;;;;2.10;1.30;;;;;;;7.35;37.29;95910.45;108104;1281;24687;-79
2023/12/20 04:10:34;;;;;;;2.60;1.40;;;;;;;7.38;37.45;95902.14;108138;1281;22540;-79
2023/12/20 04:13:02;;;;;;;1.20;1.10;;;;;;;7.43;37.49;95906.64;108089;1282;22591;-79
2023/12/20 04:15:34;;;;;;;2.20;1.10;;;;;;;7.46;37.90;95903.09;108093;1281;27108;-78
2023/12/20 04:18:03;;;;;;;2.00;1.30;;;;;;;7.47;38.22;95897.18;108107;1282;22570;-79
2023/12/20 04:20:33;;;;;;;2.50;0.90;;;;;;;7.47;38.36;95895.34;108127;1261;23301;-79
2023/12/20 04:23:04;;;;;;;1.90;1.70;;;;;;;7.48;38.44;95887.46;108162;1276;22870;-79
2023/12/20 04:25:33;;;;;;;2.90;1.40;;;;;;;7.56;38.54;95886.81;108120;1281;23627;-78
2023/12/20 04:28:01;;;;;;;3.10;1.30;;;;;;;7.58;38.63;95879.19;108134;1281;22955;-79
2023/12/20 04:30:29;;;;;;;3.20;1.20;;;;;;;7.61;38.87;95890.11;108113;1281;22549;-79
2023/12/20 04:32:58;;;;;;;2.40;1.20;;;;;;;7.64;39.01;95895.39;108148;1281;22615;-79
2023/12/20 04:35:27;;;;;;;1.90;1.30;;;;;;;7.66;39.06;95871.64;108119;1274;22600;-77
2023/12/20 04:37:55;;;;;;;1.80;1.20;;;;;;;7.69;39.24;95876.52;108177;1277;24218;-79
2023/12/20 04:40:26;;;;;;;2.30;1.50;;;;;;;7.73;39.60;95871.52;108140;1280;22511;-79
2023/12/20 04:42:54;;;;;;;2.60;1.80;;;;;;;7.75;39.72;95872.26;108134;1278;22533;-79
2023/12/20 04:45:23;;;;;;;3.40;1.60;;;;;;;7.78;39.96;95882.31;108143;1281;23930;-79
2023/12/20 04:47:50;;;;;;;;;;;;;;;7.80;40.06;95875.69;108154;1279;22565;-79
2023/12/20 04:50:19;;;;;;;2.70;1.70;;;;;;;7.85;40.06;95879.80;108149;1281;22817;-79
2023/12/20 04:52:48;;;;;;;1.80;1.40;;;;;;;7.84;40.35;95879.98;108147;1281;22670;-79
2023/12/20 04:55:16;;;;;;;1.40;1.00;;;;;;;7.83;40.49;95881.98;108114;1281;22586;-79
2023/12/20 04:57:44;;;;;;;2.70;1.70;;;;;;;7.82;40.61;95881.15;108116;1281;22755;-79
2023/12/20 05:00:15;;;;;;;2.20;1.10;;;;;;;7.82;40.81;95887.77;108168;1275;22598;-79
2023/12/20 05:02:43;;;;;;;3.20;1.60;;;;;;;7.79;41.17;95891.95;108251;1281;23191;-79
2023/12/20 05:05:11;;;;;;;1.90;1.30;;;;;;;7.79;41.18;95898.13;108146;1279;22555;-79
2023/12/20 05:07:39;;;;;;;2.80;1.60;;;;;;;7.75;41.52;95901.96;108102;1281;22712;-79
2023/12/20 05:10:10;;;;;;;3.40;1.60;;;;;;;7.71;41.61;95907.98;108139;1281;22551;-79
2023/12/20 05:12:38;;;;;;;2.40;1.60;;;;;;;7.69;41.85;95899.90;108128;1281;24243;-79
2023/12/20 05:15:11;;;;;;;2.10;1.60;;;;;;;7.67;42.08;95907.35;108126;1281;27515;-79
2023/12/20 05:17:39;;;;;;;5.10;1.20;;;;;;;7.68;42.12;95900.43;108167;1281;25618;-79
2023/12/20 05:20:10;;;;;;;2.90;1.90;;;;;;;7.67;42.18;95887.55;108147;1281;22739;-79
2023/12/20 05:22:39;;;;;;;1.50;1.20;;;;;;;7.66;42.36;95883.93;108238;1274;22541;-79
2023/12/20 05:25:10;;;;;;;1.90;1.30;;;;;;;7.65;42.61;95871.80;108118;1274;22539;-79
2023/12/20 05:27:38;;;;;;;3.10;1.90;;;;;;;7.66;42.58;95879.60;108094;1281;23771;-79
2023/12/20 05:30:11;;;;;;;5.40;2.00;;;;;;;7.64;42.73;95885.22;108150;1274;25438;-79
2023/12/20 05:32:40;;;;;;;3.20;2.10;;;;;;;7.64;42.86;95883.38;108147;1282;23990;-79
2023/12/20 05:35:11;;;;;;;2.90;1.60;;;;;;;7.63;43.11;95880.16;108116;1275;22535;-79
2023/12/20 05:37:40;;;;;;;3.30;1.90;;;;;;;7.57;43.45;95879.77;108114;1281;22536;-79
2023/12/20 05:40:12;;;;;;;2.40;1.80;;;;;;;7.53;43.51;95880.67;108140;1281;22565;-79
2023/12/20 05:42:40;;;;;;;3.80;1.90;;;;;;;7.45;43.54;95873.17;108159;1274;24340;-79
2023/12/20 05:45:11;;;;;;;3.50;1.90;;;;;;;7.40;43.40;95871.32;108171;1281;26887;-79
2023/12/20 05:47:39;;;;;;;4.40;2.20;;;;;;;7.36;43.61;95866.88;108096;1281;24294;-79
2023/12/20 05:50:09;;;;;;;5.20;2.40;;;;;;;7.33;43.84;95867.23;108180;1281;24331;-79
2023/12/20 05:52:37;;;;;;;4.80;2.40;;;;;;;7.32;44.08;95862.42;108154;1275;22541;-79
2023/12/20 05:55:07;;;;;;;3.10;2.20;;;;;;;7.30;44.10;95865.54;108143;1280;22567;-79
2023/12/20 05:57:36;;;;;;;3.40;1.90;;;;;;;7.29;44.22;95864.60;108118;1282;22551;-79
2023/12/20 06:00:06;;;;;;;3.20;2.30;;;;;;;7.26;44.48;95868.16;108120;1274;22521;-79
2023/12/20 06:02:36;;;;;;;4.40;2.30;;;;;;;7.23;44.90;95863.82;108232;1281;23866;-79
2023/12/20 06:05:07;;;;;;;3.40;2.20;;;;;;;7.19;45.08;95863.67;108146;1274;22546;-79
2023/12/20 06:07:35;;;;;;;2.50;1.90;;;;;;;7.18;45.58;95852.40;108176;1274;22530;-79
2023/12/20 06:10:06;;;;;;;2.40;2.00;;;;;;;7.18;46.02;95847.39;108092;1281;22530;-79
2023/12/20 06:12:35;;;;;;;3.00;2.10;;;;;;;7.16;46.29;95843.77;108121;1281;22564;-79
2023/12/20 06:15:05;;;;;;;2.60;1.80;;;;;;;7.14;46.83;95840.23;108102;1281;22582;-79
2023/12/20 06:17:34;;;;;;;2.90;1.90;;;;;;;7.14;47.30;95844.73;108077;1280;22549;-79
2023/12/20 06:20:07;;;;;;;2.60;1.70;;;;;;;7.13;47.93;95843.41;108120;1275;24210;-79
2023/12/20 06:22:36;;;;;;;4.40;1.80;;;;;;;7.13;48.65;95843.31;108083;1280;22553;-79
2023/12/20 06:25:06;;;;;;;2.70;1.60;;;;;;;7.09;49.20;95840.13;108110;1281;22615;-79
2023/12/20 06:27:35;;;;;;;2.40;1.60;;;;;;;7.09;50.07;95841.55;108072;1281;22544;-79
2023/12/20 06:30:05;;;;;;;10.30;7.50;;;;;;;7.10;50.60;95841.08;108092;1281;22524;-79
2023/12/20 06:32:34;;;;;;;4.60;3.00;;;;;;;7.05;51.05;95849.92;108118;1275;23873;-79
2023/12/20 06:35:04;;;;;;;3.80;2.40;;;;;;;7.02;51.04;95846.48;108074;1273;25420;-79
2023/12/20 06:37:33;;;;;;;3.30;2.00;;;;;;;6.98;50.84;95846.89;108093;1275;23762;-79
2023/12/20 06:40:02;;;;;;;3.30;2.20;;;;;;;6.95;50.66;95852.02;108098;1274;22534;-79
2023/12/20 06:42:30;;;;;;;4.50;2.00;;;;;;;6.96;50.85;95855.45;108060;1275;22554;-78
2023/12/20 06:44:58;;;;;;;3.10;2.30;;;;;;;6.96;51.59;95857.77;108100;1281;22544;-79
2023/12/20 06:47:26;;;;;;;3.10;2.10;;;;;;;6.95;51.55;95861.46;108095;1281;22544;-78
2023/12/20 06:49:58;;;;;;;2.80;2.10;;;;;;;6.93;51.94;95864.27;108101;1280;24223;-78
2023/12/20 06:52:27;;;;;;;2.50;1.70;;;;;;;6.84;52.52;95865.89;108084;1260;22549;-78
2023/12/20 06:54:55;;;;;;;3.40;1.90;;;;;;;6.73;52.91;95871.59;108086;1259;22530;-78
2023/12/20 06:57:25;;;;;;;3.20;2.20;;;;;;;6.68;53.47;95863.35;108080;1275;22538;-78
2023/12/20 06:59:54;;;;;;;4.90;2.80;;;;;;;6.66;53.68;95863.10;108105;1279;25266;-79
2023/12/20 07:02:22;;;;;;;3.70;2.40;;;;;;;6.62;54.67;95864.76;108086;1281;23723;-78
2023/12/20 07:04:51;;;;;;;3.90;2.30;;;;;;;6.62;54.91;95873.65;108074;1281;23867;-78
2023/12/20 07:07:19;;;;;;;2.30;1.90;;;;;;;6.59;55.13;95871.08;108114;1281;24211;-78
2023/12/20 07:09:47;;;;;;;3.20;2.10;;;;;;;6.57;55.28;95875.36;108089;1275;24224;-79
2023/12/20 07:12:16;;;;;;;4.00;2.40;;;;;;;6.54;55.81;95878.58;108085;1281;22644;-79
2023/12/20 07:14:44;;;;;;;4.00;2.50;;;;;;;6.56;56.27;95879.30;108120;1282;22559;-78
2023/12/20 07:17:14;;;;;;;3.70;2.50;;;;;;;6.56;56.22;95880.67;108063;1274;25291;-78
2023/12/20 07:19:43;;;;;;;7.00;3.90;;;;;;;6.52;56.53;95881.28;108069;1275;23090;-79
2023/12/20 07:22:11;;;;;;;7.20;3.20;;;;;;;6.47;56.69;95885.55;108089;1281;22527;-79
2023/12/20 07:24:40;;;;;;;5.10;2.80;;;;;;;6.49;56.89;95879.04;108096;1281;22542;-78
2023/12/20 07:27:08;;;;;;;4.00;2.60;;;;;;;6.51;56.86;95878.13;108073;1274;29371;-79
2023/12/20 07:29:37;;;;;;;4.20;2.70;;;;;;;6.53;56.80;95878.38;108090;1281;22603;-79
2023/12/20 07:32:07;;;;;;;6.90;3.20;;;;;;;6.55;57.02;95885.48;108061;1280;22533;-79
2023/12/20 07:34:35;;;;;;;6.10;3.00;;;;;;;6.53;57.25;95881.38;108154;1274;23927;-79
2023/12/20 07:37:03;;;;;;;5.40;3.10;;;;;;;6.50;57.32;95878.70;108052;1275;22534;-78
2023/12/20 07:39:32;;;;;;;4.70;2.90;;;;;;;6.47;57.40;95882.55;108091;1281;26042;-78
2023/12/20 07:42:00;;;;;;;9.40;5.00;;;;;;;6.30;57.84;95884.98;108124;1281;22538;-78
2023/12/20 07:44:28;;;;;;;10.00;5.90;;;;;;;5.91;59.34;95892.86;108087;1275;25436;-79
2023/12/20 07:46:57;;;;;;;9.00;5.60;;;;;;;5.51;60.62;95891.45;108037;1281;27080;-79
2023/12/20 07:49:25;;;;;;;10.10;6.10;;;;;;;5.21;61.49;95897.02;108132;1262;22576;-78
2023/12/20 07:51:54;;;;;;;11.90;6.40;;;;;;;4.98;62.31;95904.84;108084;1277;22557;-78
2023/12/20 07:54:22;;;;;;;15.20;7.50;;;;;;;4.85;62.57;95910.48;108137;1275;22527;-79
2023/12/20 07:56:50;;;;;;;20.30;8.10;;;;;;;4.74;63.23;95914.13;108137;1281;24206;-78
2023/12/20 07:59:19;;;;;;;22.00;9.30;;;;;;;4.67;64.12;95916.16;108156;1281;22538;-79
2023/12/20 08:01:47;;;;;;;15.40;7.70;;;;;;;4.52;65.15;95919.14;108124;1281;22685;-79
2023/12/20 08:04:17;;;;;;;12.90;6.90;;;;;;;4.40;65.67;95919.45;108109;1281;24213;-79
2023/12/20 08:06:45;;;;;;;11.60;6.50;;;;;;;4.34;65.86;95917.00;108126;1274;24684;-78
2023/12/20 08:09:13;;;;;;;10.70;6.40;;;;;;;4.35;66.01;95919.42;108123;1281;22630;-78
2023/12/20 08:11:46;;;;;;;10.40;6.20;;;;;;;4.48;66.16;95925.33;108104;1281;22580;-78
2023/12/20 08:14:14;;;;;;;8.50;5.70;;;;;;;4.59;65.93;95921.73;108155;1281;22706;-78
2023/12/20 08:16:43;;;;;;;10.50;6.10;;;;;;;4.64;65.98;95919.61;108113;1281;22533;-78
2023/12/20 08:19:15;;;;;;;9.80;6.10;;;;;;;4.70;66.11;95927.35;108108;1276;22525;-78
2023/12/20 08:21:46;;;;;;;11.80;6.40;;;;;;;4.70;65.79;95926.88;108112;1277;22526;-78
2023/12/20 08:24:14;;;;;;;9.80;6.60;;;;;;;4.62;65.88;95926.05;108123;1279;24308;-78
2023/12/20 08:26:42;;;;;;;10.50;6.50;;;;;;;4.54;66.18;95926.19;108104;1274;22597;-78
2023/12/20 08:29:14;;;;;;;9.70;5.70;;;;;;;4.47;66.91;95935.27;108107;1274;25277;-78
2023/12/20 08:31:42;;;;;;;11.50;7.50;;;;;;;4.43;67.18;95935.74;108118;1281;24849;-78
2023/12/20 08:34:14;;;;;;;11.20;6.70;;;;;;;4.36;67.56;95936.19;108118;1281;22534;-78
2023/12/20 08:36:43;;;;;;;10.50;6.60;;;;;;;4.27;68.27;95935.61;108103;1281;22537;-78
2023/12/20 08:39:11;;;;;;;10.60;6.40;;;;;;;4.18;68.51;95934.66;108097;1281;22566;-78
2023/12/20 08:41:40;;;;;;;7.80;5.40;;;;;;;4.13;68.89;95937.38;108114;1281;25737;-79
2023/12/20 08:44:11;;;;;;;11.70;7.80;;;;;;;4.11;69.42;95931.59;108090;1281;22533;-79
2023/12/20 08:46:39;;;;;;;10.70;7.00;;;;;;;4.07;69.84;95927.27;108069;1274;22631;-79
2023/12/20 08:49:10;;;;;;;13.50;7.60;;;;;;;4.01;70.40;95924.17;108144;1281;25314;-79
2023/12/20 08:51:40;;;;;;;12.80;8.20;;;;;;;3.97;71.59;95919.50;108128;1281;22612;-79
2023/12/20 08:54:09;;;;;;;12.20;7.40;;;;;;;3.93;72.37;95921.86;108123;1281;23761;-78
2023/12/20 08:56:38;;;;;;;13.90;7.80;;;;;;;3.90;73.36;95925.15;108091;1278;23839;-78
2023/12/20 08:59:06;;;;;;;12.20;7.80;;;;;;;3.86;73.86;95927.38;108137;1281;22541;-79
2023/12/20 09:01:35;;;;;;;13.30;8.40;;;;;;;3.85;74.18;95934.20;108107;1281;22534;-79
2023/12/20 09:04:03;;;;;;;13.70;8.50;;;;;;;3.85;74.38;95928.90;108118;1281;22644;-79
2023/12/20 09:06:33;;;;;;;14.40;8.00;;;;;;;3.90;74.69;95923.27;108108;1281;22531;-79
2023/12/20 09:09:03;;;;;;;11.80;7.50;;;;;;;3.99;75.28;95923.08;108085;1281;25422;-79
2023/12/20 09:11:34;;;;;;;7.40;4.40;;;;;;;4.12;75.98;95919.38;108142;1281;24338;-79
2023/12/20 09:14:03;;;;;;;21.50;11.10;;;;;;;4.36;77.87;95910.94;108123;1259;22533;-79
2023/12/20 09:16:32;;;;;;;9.10;5.80;;;;;;;4.52;78.29;95921.51;108103;1282;23770;-79
2023/12/20 09:19:00;;;;;;;12.60;7.80;;;;;;;4.60;77.91;95930.25;108081;1279;22536;-79
2023/12/20 09:21:31;;;;;;;9.50;6.20;;;;;;;4.62;77.44;95925.79;108099;1282;22525;-79
2023/12/20 09:24:04;;;;;;;11.10;6.20;;;;;;;4.66;77.48;95926.88;108119;1281;22551;-79
2023/12/20 09:26:33;;;;;;;10.00;6.00;;;;;;;4.66;78.33;95932.13;108080;1274;22562;-79
2023/12/20 09:29:04;;;;;;;12.20;6.60;;;;;;;4.65;78.32;95923.56;108123;1281;22533;-79
2023/12/20 09:31:32;;;;;;;9.40;5.40;;;;;;;4.65;77.71;95910.54;108107;1281;24318;-79
2023/12/20 09:34:00;;;;;;;10.30;6.60;;;;;;;4.66;77.95;95895.42;108125;1281;23950;-79
2023/12/20 09:36:28;;;;;;;8.70;5.20;;;;;;;4.68;77.54;95901.30;108060;1281;22541;-79
2023/12/20 09:38:59;;;;;;;9.50;6.70;;;;;;;4.70;77.61;95902.05;108134;1281;22533;-78
2023/12/20 09:41:32;;;;;;;11.70;6.60;;;;;;;4.71;77.51;95905.98;108145;1281;22549;-79
2023/12/20 09:44:04;;;;;;;9.50;6.00;;;;;;;4.73;77.29;95908.41;108155;1274;22991;-79
2023/12/20 09:46:35;;;;;;;10.20;6.80;;;;;;;4.75;77.24;95903.67;108119;1274;22551;-79
2023/12/20 09:49:06;;;;;;;9.20;6.40;;;;;;;4.77;77.37;95900.79;108104;1281;22562;-79
2023/12/20 09:51:37;;;;;;;6.60;4.20;;;;;;;4.80;77.39;95892.42;108118;1281;22533;-79
2023/12/20 09:54:06;;;;;;;8.80;5.00;;;;;;;4.84;77.51;95894.31;108100;1280;22539;-79
2023/12/20 09:56:37;;;;;;;6.60;4.00;;;;;;;4.86;77.93;95893.48;108092;1281;22526;-79
2023/12/20 09:59:06;;;;;;;6.70;4.30;;;;;;;4.89;78.20;95894.73;108098;1281;22531;-78
2023/12/20 10:01:36;;;;;;;9.60;3.90;;;;;;;4.90;78.02;95886.75;108131;1281;22525;-79
2023/12/20 10:04:08;;;;;;;5.60;3.00;;;;;;;4.91;78.48;95887.13;108122;1274;22533;-79
2023/12/20 10:06:37;;;;;;;6.00;3.30;;;;;;;4.91;79.93;95873.78;108083;1281;25473;-78
2023/12/20 10:09:06;;;;;;;5.00;3.10;;;;;;;4.89;80.11;95876.98;108079;1281;22538;-79
2023/12/20 10:11:37;;;;;;;5.50;3.80;;;;;;;4.85;80.29;95868.31;108083;1267;23020;-78
2023/12/20 10:14:11;;;;;;;5.80;3.30;;;;;;;4.82;80.27;95875.61;108125;1281;24187;-79
2023/12/20 10:16:41;;;;;;;3.80;2.40;;;;;;;4.78;80.50;95864.52;108083;1281;23803;-79
2023/12/20 10:19:09;;;;;;;4.20;2.30;;;;;;;4.76;81.00;95869.07;108109;1277;22528;-79
2023/12/20 10:21:37;;;;;;;3.10;2.40;;;;;;;4.74;81.01;95871.22;108102;1274;22524;-79
2023/12/20 10:24:07;;;;;;;5.70;2.70;;;;;;;4.72;81.00;95870.23;108086;1281;22569;-79
2023/12/20 10:26:39;;;;;;;7.90;2.70;;;;;;;4.72;81.17;95865.65;108071;1281;22530;-79
2023/12/20 10:29:09;;;;;;;5.10;2.70;;;;;;;4.73;81.28;95870.80;108093;1280;22528;-78
2023/12/20 10:31:42;;;;;;;4.10;2.30;;;;;;;4.72;81.71;95867.81;108115;1274;22530;-78
2023/12/20 10:34:10;;;;;;;3.70;2.30;;;;;;;4.70;81.87;95879.58;108139;1279;22533;-79
2023/12/20 10:36:41;;;;;;;4.40;2.20;;;;;;;4.68;82.14;95874.95;108072;1281;24627;-78
2023/12/20 10:39:13;;;;;;;3.20;2.10;;;;;;;4.69;82.30;95877.31;108110;1281;23891;-78
2023/12/20 10:41:42;;;;;;;3.40;2.30;;;;;;;4.68;82.51;95880.98;108106;1281;24374;-79
2023/12/20 10:44:15;;;;;;;4.30;2.90;;;;;;;4.66;82.84;95857.15;108064;1281;24232;-78
2023/12/20 10:46:51;;;;;;;3.70;2.20;;;;;;;4.65;83.00;95858.20;108142;1281;24176;-78
2023/12/20 10:49:20;;;;;;;3.50;1.70;;;;;;;4.65;83.07;95847.17;108128;1281;22670;-78
2023/12/20 10:51:49;;;;;;;4.20;2.20;;;;;;;4.64;83.04;95850.56;108134;1274;22621;-79
2023/12/20 10:54:17;;;;;;;4.60;2.50;;;;;;;4.63;83.10;95850.77;108106;1274;25445;-79
2023/12/20 10:56:46;;;;;;;3.20;1.60;;;;;;;4.63;83.25;95855.96;108073;1277;22655;-78
2023/12/20 10:59:20;;;;;;;5.50;2.80;;;;;;;4.62;83.31;95854.16;108109;1275;25091;-78
2023/12/20 11:01:50;;;;;;;4.40;2.70;;;;;;;4.62;83.67;95857.06;108100;1274;22555;-78
2023/12/20 11:04:25;;;;;;;2.30;1.80;;;;;;;4.63;83.95;95851.55;108075;1279;23363;-78
2023/12/20 11:06:59;;;;;;;3.20;2.00;;;;;;;4.61;83.95;95865.83;108085;1274;23838;-78
2023/12/20 11:09:34;;;;;;;3.90;2.10;;;;;;;4.58;84.13;95861.89;108081;1281;22532;-78
2023/12/20 11:12:10;;;;;;;3.30;2.10;;;;;;;4.53;84.92;95864.55;108099;1275;26797;-78
2023/12/20 11:14:46;;;;;;;2.80;1.60;;;;;;;4.48;85.03;95870.14;108075;1282;22577;-78
2023/12/20 11:17:16;;;;;;;2.50;1.30;;;;;;;4.43;85.67;95873.80;108118;1275;22537;-78
2023/12/20 11:20:11;;;;;;;4.60;1.80;;;;;;;4.37;85.52;95869.59;108100;1281;22532;-78
2023/12/20 11:22:52;;;;;;;4.10;2.10;;;;;;;4.32;86.24;95862.73;108111;1274;22530;-79
2023/12/20 11:25:20;;;;;;;3.60;1.70;;;;;;;4.27;86.79;95845.35;108093;1281;22656;-78
2023/12/20 11:28:12;;;;;;;3.40;1.80;;;;;;;4.24;86.85;95835.08;108072;1281;22529;-78
2023/12/20 11:30:47;;;;;;;2.20;1.60;;;;;;;4.20;86.67;95857.38;108085;1281;25437;-78
2023/12/20 11:33:17;;;;;;;4.00;2.00;;;;;;;4.16;87.00;95859.11;108106;1281;22644;-78
2023/12/20 11:35:47;;;;;;;5.80;2.10;;;;;;;4.12;87.27;95868.02;108036;1281;22520;-78
2023/12/20 11:38:16;;;;;;;3.20;2.10;;;;;;;4.07;87.51;95867.03;108108;1281;26807;-78
2023/12/20 11:40:48;;;;;;;5.80;2.40;;;;;;;4.03;87.63;95870.16;108115;1281;22543;-78
2023/12/20 11:43:31;;;;;;;7.90;4.20;;;;;;;4.00;87.33;95870.98;108133;1281;22529;-78